createdAt,value
2023-05-14T00:00:34.414Z,9.89
2023-05-14T00:01:34.420Z,9.83
2023-05-14T00:02:34.479Z,9.77
2023-05-14T00:03:34.417Z,9.72
2023-05-14T00:04:34.438Z,9.66
2023-05-14T00:05:34.366Z,9.62
2023-05-14T00:06:34.376Z,9.64
2023-05-14T00:07:34.311Z,9.62
2023-05-14T00:08:34.310Z,9.56
2023-05-14T00:09:34.278Z,9.55
2023-05-14T00:10:34.292Z,9.55
2023-05-14T00:11:34.311Z,9.62
2023-05-14T00:12:34.260Z,9.66
2023-05-14T00:13:34.254Z,9.66
2023-05-14T00:14:34.251Z,9.69
2023-05-14T00:15:34.627Z,9.64
2023-05-14T00:16:34.308Z,9.66
2023-05-14T00:17:34.224Z,9.66
2023-05-14T00:18:34.261Z,9.64
2023-05-14T00:19:34.181Z,9.58
2023-05-14T00:20:34.213Z,9.50
2023-05-14T00:21:34.172Z,9.44
2023-05-14T00:22:34.150Z,9.31
2023-05-14T00:23:34.146Z,9.28
2023-05-14T00:24:34.113Z,9.25
2023-05-14T00:25:34.150Z,9.25
2023-05-14T00:26:34.100Z,9.28
2023-05-14T00:27:34.080Z,9.31
2023-05-14T00:28:34.084Z,9.29
2023-05-14T00:29:34.114Z,9.28
2023-05-14T00:30:34.093Z,9.19
2023-05-14T00:31:34.080Z,9.11
2023-05-14T00:32:34.124Z,9.11
2023-05-14T00:33:34.013Z,9.08
2023-05-14T00:34:34.055Z,9.10
2023-05-14T00:35:34.004Z,9.11
2023-05-14T00:36:33.985Z,9.10
2023-05-14T00:37:33.983Z,9.06
2023-05-14T00:38:33.968Z,9.02
2023-05-14T00:39:33.980Z,-39.96
2023-05-14T00:40:33.946Z,9.04
2023-05-14T00:41:33.916Z,9.02
2023-05-14T00:42:33.908Z,8.91
2023-05-14T00:43:33.933Z,8.82
2023-05-14T00:44:33.942Z,8.82
2023-05-14T00:45:33.873Z,8.76
2023-05-14T00:46:33.930Z,8.78
2023-05-14T00:47:33.916Z,8.87
2023-05-14T00:48:33.870Z,8.94
2023-05-14T00:49:33.839Z,-39.96
2023-05-14T00:50:33.826Z,8.67
2023-05-14T00:51:33.851Z,8.61
2023-05-14T00:52:33.797Z,8.60
2023-05-14T00:53:33.813Z,8.56
2023-05-14T00:54:33.783Z,8.45
2023-05-14T00:55:33.771Z,8.34
2023-05-14T00:56:33.770Z,8.24
2023-05-14T00:57:33.788Z,8.20
2023-05-14T00:58:33.776Z,8.30
2023-05-14T00:59:33.727Z,8.30
2023-05-14T01:00:33.786Z,8.31
2023-05-14T01:01:33.735Z,8.33
2023-05-14T01:02:33.788Z,8.33
2023-05-14T01:03:33.759Z,8.45
2023-05-14T01:04:33.672Z,8.58
2023-05-14T01:05:33.654Z,8.55
2023-05-14T01:06:33.662Z,8.71
2023-05-14T01:07:33.681Z,8.46
2023-05-14T01:08:33.618Z,8.44
2023-05-14T01:09:33.611Z,8.38
2023-05-14T01:10:33.591Z,8.34
2023-05-14T01:11:33.619Z,8.28
2023-05-14T01:12:33.631Z,8.27
2023-05-14T01:13:33.566Z,8.36
2023-05-14T01:14:33.556Z,8.26
2023-05-14T01:15:33.607Z,8.20
2023-05-14T01:16:33.635Z,8.15
2023-05-14T01:17:33.560Z,8.15
2023-05-14T01:18:33.580Z,8.05
2023-05-14T01:19:33.483Z,7.91
2023-05-14T01:20:33.544Z,8.12
2023-05-14T01:21:33.528Z,7.94
2023-05-14T01:22:33.465Z,7.98
2023-05-14T01:23:33.462Z,7.97
2023-05-14T01:24:33.451Z,8.03
2023-05-14T01:25:33.475Z,7.83
2023-05-14T01:26:33.455Z,7.91
2023-05-14T01:27:33.447Z,7.83
2023-05-14T01:28:33.437Z,7.75
2023-05-14T01:29:33.376Z,7.76
2023-05-14T01:30:33.399Z,7.80
2023-05-14T01:31:33.384Z,7.75
2023-05-14T01:32:33.378Z,7.85
2023-05-14T01:33:33.333Z,7.77
2023-05-14T01:34:33.364Z,7.73
2023-05-14T01:35:33.362Z,8.01
2023-05-14T01:36:33.303Z,7.76
2023-05-14T01:37:33.328Z,7.93
2023-05-14T01:38:33.279Z,7.54
2023-05-14T01:39:33.294Z,7.60
2023-05-14T01:40:33.255Z,7.45
2023-05-14T01:41:33.253Z,7.43
2023-05-14T01:42:33.244Z,7.33
2023-05-14T01:43:33.287Z,7.53
2023-05-14T01:44:33.251Z,7.20
2023-05-14T01:45:33.189Z,7.11
2023-05-14T01:46:33.281Z,7.17
2023-05-14T01:47:33.214Z,7.18
2023-05-14T01:48:33.203Z,7.10
2023-05-14T01:49:33.190Z,7.11
2023-05-14T01:50:33.164Z,7.28
2023-05-14T01:51:33.130Z,7.07
2023-05-14T01:52:33.120Z,7.29
2023-05-14T01:53:33.135Z,7.11
2023-05-14T01:54:33.105Z,7.20
2023-05-14T01:55:33.089Z,7.40
2023-05-14T01:56:33.077Z,7.18
2023-05-14T01:57:33.080Z,7.20
2023-05-14T01:58:33.083Z,7.29
2023-05-14T01:59:33.050Z,7.40
2023-05-14T02:00:33.049Z,7.21
2023-05-14T02:01:33.093Z,7.38
2023-05-14T02:02:33.107Z,7.20
2023-05-14T02:03:33.058Z,7.21
2023-05-14T02:04:32.987Z,7.35
2023-05-14T02:05:32.973Z,7.32
2023-05-14T02:06:32.968Z,7.03
2023-05-14T02:07:32.992Z,7.07
2023-05-14T02:08:32.926Z,7.15
2023-05-14T02:09:32.924Z,7.14
2023-05-14T02:10:32.897Z,6.95
2023-05-14T02:11:32.900Z,7.06
2023-05-14T02:12:32.920Z,6.93
2023-05-14T02:13:32.880Z,6.87
2023-05-14T02:14:32.872Z,6.89
2023-05-14T02:15:32.891Z,6.77
2023-05-14T02:16:32.910Z,6.99
2023-05-14T02:17:32.940Z,6.85
2023-05-14T02:18:32.839Z,6.88
2023-05-14T02:19:32.816Z,6.92
2023-05-14T02:20:32.803Z,6.97
2023-05-14T02:21:32.826Z,6.92
2023-05-14T02:22:32.804Z,6.93
2023-05-14T02:23:41.001Z,7.03
2023-05-14T02:24:33.787Z,6.78
2023-05-14T02:25:32.746Z,6.96
2023-05-14T02:26:32.779Z,6.60
2023-05-14T02:27:32.724Z,6.84
2023-05-14T02:28:32.723Z,6.54
2023-05-14T02:29:32.710Z,6.62
2023-05-14T02:30:32.676Z,6.63
2023-05-14T02:31:32.779Z,6.60
2023-05-14T02:32:32.747Z,6.62
2023-05-14T02:33:32.711Z,6.51
2023-05-14T02:34:32.645Z,6.69
2023-05-14T02:35:32.675Z,6.45
2023-05-14T02:36:32.654Z,6.54
2023-05-14T02:37:32.605Z,6.62
2023-05-14T02:38:32.596Z,6.62
2023-05-14T02:39:32.600Z,6.59
2023-05-14T02:40:32.621Z,6.52
2023-05-14T02:41:32.567Z,6.78
2023-05-14T02:42:32.551Z,6.63
2023-05-14T02:43:32.550Z,6.70
2023-05-14T02:44:32.564Z,6.63
2023-05-14T02:45:32.566Z,6.41
2023-05-14T02:46:32.590Z,6.28
2023-05-14T02:47:32.857Z,6.52
2023-05-14T02:48:32.486Z,6.54
2023-05-14T02:49:32.504Z,6.52
2023-05-14T02:50:32.470Z,6.26
2023-05-14T02:51:32.473Z,6.56
2023-05-14T02:52:32.433Z,6.30
2023-05-14T02:53:32.435Z,6.26
2023-05-14T02:54:32.487Z,6.48
2023-05-14T02:55:32.435Z,6.45
2023-05-14T02:56:32.395Z,6.22
2023-05-14T02:57:32.384Z,6.44
2023-05-14T02:58:32.421Z,6.46
2023-05-14T02:59:32.403Z,6.45
2023-05-14T03:00:32.422Z,6.20
2023-05-14T03:01:32.350Z,6.19
2023-05-14T03:02:32.385Z,6.22
2023-05-14T03:03:32.366Z,6.46
2023-05-14T03:04:32.304Z,6.22
2023-05-14T03:05:32.321Z,6.45
2023-05-14T03:06:32.298Z,6.41
2023-05-14T03:07:32.280Z,6.17
2023-05-14T03:08:32.303Z,6.05
2023-05-14T03:09:32.256Z,6.28
2023-05-14T03:10:32.242Z,6.22
2023-05-14T03:11:32.243Z,6.20
2023-05-14T03:12:32.254Z,6.22
2023-05-14T03:13:32.249Z,5.99
2023-05-14T03:14:32.179Z,6.20
2023-05-14T03:15:32.177Z,6.22
2023-05-14T03:16:32.232Z,6.26
2023-05-14T03:17:32.232Z,6.28
2023-05-14T03:18:32.169Z,6.11
2023-05-14T03:19:32.139Z,6.28
2023-05-14T03:20:32.127Z,6.30
2023-05-14T03:21:32.122Z,6.28
2023-05-14T03:22:32.140Z,6.08
2023-05-14T03:23:32.127Z,6.27
2023-05-14T03:24:32.092Z,6.33
2023-05-14T03:25:32.097Z,6.44
2023-05-14T03:26:32.093Z,6.27
2023-05-14T03:27:32.099Z,6.48
2023-05-14T03:28:32.060Z,6.59
2023-05-14T03:29:32.036Z,6.63
2023-05-14T03:30:32.093Z,6.63
2023-05-14T03:31:32.046Z,6.41
2023-05-14T03:32:32.021Z,6.44
2023-05-14T03:33:31.976Z,6.48
2023-05-14T03:34:31.984Z,6.56
2023-05-14T03:35:31.961Z,6.62
2023-05-14T03:36:31.989Z,6.67
2023-05-14T03:37:31.939Z,6.70
2023-05-14T03:38:31.945Z,6.70
2023-05-14T03:39:31.925Z,6.69
2023-05-14T03:40:31.928Z,6.89
2023-05-14T03:41:31.935Z,6.88
2023-05-14T03:42:31.869Z,6.88
2023-05-14T03:43:31.878Z,6.70
2023-05-14T03:44:31.869Z,6.93
2023-05-14T03:45:31.869Z,7.00
2023-05-14T03:46:31.825Z,7.02
2023-05-14T03:47:31.850Z,6.82
2023-05-14T03:48:31.867Z,6.89
2023-05-14T03:49:31.818Z,6.85
2023-05-14T03:50:31.828Z,7.05
2023-05-14T03:51:31.780Z,7.03
2023-05-14T03:52:31.764Z,6.84
2023-05-14T03:53:31.759Z,6.74
2023-05-14T03:54:31.742Z,6.78
2023-05-14T03:55:31.767Z,6.77
2023-05-14T03:56:31.735Z,6.79
2023-05-14T03:57:31.712Z,6.81
2023-05-14T03:58:31.717Z,6.75
2023-05-14T03:59:31.721Z,6.81
2023-05-14T04:00:31.710Z,6.93
2023-05-14T04:01:31.660Z,6.70
2023-05-14T04:02:31.697Z,6.66
2023-05-14T04:03:32.061Z,6.67
2023-05-14T04:04:31.838Z,6.60
2023-05-14T04:05:31.635Z,6.69
2023-05-14T04:06:31.616Z,6.77
2023-05-14T04:07:31.596Z,6.75
2023-05-14T04:08:31.598Z,6.78
2023-05-14T04:09:31.623Z,6.79
2023-05-14T04:10:31.578Z,6.79
2023-05-14T04:11:31.563Z,7.07
2023-05-14T04:12:31.554Z,7.07
2023-05-14T04:13:31.563Z,7.10
2023-05-14T04:14:31.551Z,7.11
2023-05-14T04:15:31.504Z,7.13
2023-05-14T04:16:31.524Z,7.14
2023-05-14T04:17:31.481Z,7.20
2023-05-14T04:18:31.519Z,7.21
2023-05-14T04:19:31.490Z,7.25
2023-05-14T04:20:31.458Z,7.31
2023-05-14T04:21:31.461Z,7.38
2023-05-14T04:22:31.443Z,7.45
2023-05-14T04:23:31.453Z,7.54
2023-05-14T04:24:31.422Z,7.70
2023-05-14T04:25:31.427Z,7.82
2023-05-14T04:26:31.388Z,7.93
2023-05-14T04:27:31.418Z,8.05
2023-05-14T04:28:31.380Z,8.13
2023-05-14T04:29:31.360Z,8.20
2023-05-14T04:30:31.348Z,8.28
2023-05-14T04:31:31.332Z,8.31
2023-05-14T04:32:31.458Z,8.46
2023-05-14T04:33:31.315Z,8.52
2023-05-14T04:34:31.312Z,8.60
2023-05-14T04:35:31.297Z,8.64
2023-05-14T04:36:31.256Z,8.70
2023-05-14T04:37:31.300Z,8.74
2023-05-14T04:38:31.239Z,8.81
2023-05-14T04:39:31.259Z,8.88
2023-05-14T04:40:31.237Z,8.92
2023-05-14T04:41:31.270Z,8.95
2023-05-14T04:42:31.271Z,8.95
2023-05-14T04:43:31.239Z,8.97
2023-05-14T04:44:31.198Z,9.00
2023-05-14T04:45:32.847Z,9.04
2023-05-14T04:46:31.286Z,9.13
2023-05-14T04:47:31.152Z,9.18
2023-05-14T04:48:31.145Z,9.23
2023-05-14T04:49:31.135Z,9.26
2023-05-14T04:50:31.138Z,9.26
2023-05-14T04:51:31.146Z,9.37
2023-05-14T04:52:31.086Z,9.43
2023-05-14T04:53:31.089Z,9.50
2023-05-14T04:54:31.126Z,9.61
2023-05-14T04:55:31.096Z,9.56
2023-05-14T04:56:31.069Z,9.64
2023-05-14T04:57:31.037Z,9.92
2023-05-14T04:58:32.147Z,10.02
2023-05-14T04:59:31.024Z,9.84
2023-05-14T05:00:31.026Z,10.01
2023-05-14T05:01:31.111Z,9.89
2023-05-14T05:02:31.013Z,9.86
2023-05-14T05:03:30.973Z,9.92
2023-05-14T05:04:30.965Z,9.94
2023-05-14T05:05:31.116Z,10.01
2023-05-14T05:06:30.934Z,10.01
2023-05-14T05:07:30.929Z,10.04
2023-05-14T05:08:30.912Z,10.23
2023-05-14T05:09:30.904Z,10.04
2023-05-14T05:10:30.908Z,10.12
2023-05-14T05:11:30.903Z,10.05
2023-05-14T05:12:30.872Z,10.10
2023-05-14T05:13:30.857Z,10.42
2023-05-14T05:14:30.838Z,10.53
2023-05-14T05:15:30.858Z,10.38
2023-05-14T05:16:30.911Z,10.49
2023-05-14T05:17:30.873Z,10.49
2023-05-14T05:18:30.865Z,10.87
2023-05-14T05:19:42.264Z,10.92
2023-05-14T05:20:31.810Z,10.99
2023-05-14T05:21:30.775Z,11.08
2023-05-14T05:22:30.770Z,11.15
2023-05-14T05:23:30.758Z,11.23
2023-05-14T05:24:30.785Z,11.30
2023-05-14T05:25:30.741Z,11.35
2023-05-14T05:26:30.710Z,11.50
2023-05-14T05:27:30.695Z,11.57
2023-05-14T05:28:30.708Z,11.69
2023-05-14T05:29:30.718Z,11.45
2023-05-14T05:30:30.679Z,11.81
2023-05-14T05:31:30.674Z,11.62
2023-05-14T05:32:30.720Z,11.75
2023-05-14T05:33:30.674Z,12.12
2023-05-14T05:34:30.668Z,12.15
2023-05-14T05:35:30.630Z,12.24
2023-05-14T05:36:30.597Z,12.36
2023-05-14T05:37:30.605Z,12.21
2023-05-14T05:38:30.612Z,12.31
2023-05-14T05:39:30.583Z,12.55
2023-05-14T05:40:30.537Z,12.65
2023-05-14T05:41:30.559Z,12.70
2023-05-14T05:42:30.505Z,12.73
2023-05-14T05:43:30.551Z,12.65
2023-05-14T05:44:30.498Z,12.95
2023-05-14T05:45:30.501Z,13.09
2023-05-14T05:46:30.515Z,13.09
2023-05-14T05:47:30.570Z,13.13
2023-05-14T05:48:30.502Z,13.23
2023-05-14T05:49:30.455Z,13.18
2023-05-14T05:50:30.434Z,13.01
2023-05-14T05:51:30.451Z,13.03
2023-05-14T05:52:30.446Z,13.13
2023-05-14T05:53:30.411Z,13.22
2023-05-14T05:54:30.406Z,13.60
2023-05-14T05:55:30.396Z,13.28
2023-05-14T05:56:30.367Z,13.57
2023-05-14T05:57:30.395Z,13.50
2023-05-14T05:58:30.379Z,13.33
2023-05-14T05:59:30.329Z,13.44
2023-05-14T06:00:30.326Z,13.62
2023-05-14T06:01:30.314Z,14.04
2023-05-14T06:02:30.458Z,14.03
2023-05-14T06:03:30.285Z,13.86
2023-05-14T06:04:30.304Z,13.78
2023-05-14T06:05:30.290Z,13.74
2023-05-14T06:06:30.246Z,13.67
2023-05-14T06:07:30.274Z,13.89
2023-05-14T06:08:30.250Z,13.78
2023-05-14T06:09:30.216Z,13.75
2023-05-14T06:10:30.217Z,13.81
2023-05-14T06:11:30.223Z,13.74
2023-05-14T06:12:30.231Z,13.85
2023-05-14T06:13:30.163Z,13.77
2023-05-14T06:14:30.157Z,13.99
2023-05-14T06:15:30.147Z,14.12
2023-05-14T06:16:30.218Z,14.45
2023-05-14T06:17:30.145Z,14.50
2023-05-14T06:18:30.227Z,14.41
2023-05-14T06:19:30.111Z,14.22
2023-05-14T06:20:30.103Z,14.86
2023-05-14T06:21:30.132Z,15.02
2023-05-14T06:22:30.073Z,15.21
2023-05-14T06:23:30.062Z,15.11
2023-05-14T06:24:30.052Z,15.15
2023-05-14T06:25:30.067Z,15.00
2023-05-14T06:26:30.102Z,14.84
2023-05-14T06:27:30.004Z,14.91
2023-05-14T06:28:30.008Z,15.18
2023-05-14T06:29:29.988Z,15.10
2023-05-14T06:30:30.009Z,14.91
2023-05-14T06:31:30.011Z,14.79
2023-05-14T06:32:29.997Z,14.86
2023-05-14T06:33:29.945Z,14.91
2023-05-14T06:34:29.964Z,14.79
2023-05-14T06:35:29.950Z,14.65
2023-05-14T06:36:29.929Z,14.60
2023-05-14T06:37:29.902Z,14.59
2023-05-14T06:38:29.897Z,14.62
2023-05-14T06:39:29.924Z,14.73
2023-05-14T06:40:29.919Z,14.79
2023-05-14T06:41:29.863Z,14.92
2023-05-14T06:42:29.853Z,14.89
2023-05-14T06:43:29.823Z,15.07
2023-05-14T06:44:29.883Z,15.52
2023-05-14T06:45:31.218Z,15.51
2023-05-14T06:46:29.820Z,15.67
2023-05-14T06:47:29.845Z,15.14
2023-05-14T06:48:29.952Z,15.35
2023-05-14T06:49:29.822Z,15.61
2023-05-14T06:50:29.757Z,15.83
2023-05-14T06:51:29.748Z,16.05
2023-05-14T06:52:29.744Z,16.09
2023-05-14T06:53:29.723Z,16.08
2023-05-14T06:54:29.769Z,16.38
2023-05-14T06:55:29.732Z,16.43
2023-05-14T06:56:29.691Z,16.42
2023-05-14T06:57:29.698Z,16.49
2023-05-14T06:58:29.744Z,16.56
2023-05-14T06:59:29.703Z,16.71
2023-05-14T07:00:29.667Z,17.42
2023-05-14T07:01:29.702Z,17.72
2023-05-14T07:02:29.685Z,17.95
2023-05-14T07:03:29.636Z,18.22
2023-05-14T07:04:29.654Z,18.74
2023-05-14T07:05:29.597Z,18.53
2023-05-14T07:06:29.598Z,18.70
2023-05-14T07:07:29.577Z,19.29
2023-05-14T07:08:29.586Z,19.95
2023-05-14T07:09:29.570Z,19.70
2023-05-14T07:10:29.532Z,19.54
2023-05-14T07:11:29.545Z,18.89
2023-05-14T07:12:29.575Z,18.84
2023-05-14T07:13:29.583Z,18.81
2023-05-14T07:14:29.472Z,19.09
2023-05-14T07:15:29.477Z,19.00
2023-05-14T07:16:29.476Z,19.16
2023-05-14T07:17:29.665Z,19.07
2023-05-14T07:18:29.454Z,19.07
2023-05-14T07:19:29.444Z,18.31
2023-05-14T07:20:29.460Z,18.40
2023-05-14T07:21:29.418Z,18.98
2023-05-14T07:22:29.434Z,19.64
2023-05-14T07:23:29.390Z,20.31
2023-05-14T07:24:29.401Z,19.94
2023-05-14T07:25:29.365Z,19.79
2023-05-14T07:26:29.399Z,18.83
2023-05-14T07:27:29.380Z,19.14
2023-05-14T07:28:29.327Z,18.99
2023-05-14T07:29:29.366Z,19.37
2023-05-14T07:30:29.317Z,19.30
2023-05-14T07:31:29.409Z,20.52
2023-05-14T07:32:29.335Z,20.67
2023-05-14T07:33:29.285Z,20.31
2023-05-14T07:34:29.267Z,20.37
2023-05-14T07:35:29.245Z,20.21
2023-05-14T07:36:29.273Z,20.43
2023-05-14T07:37:29.230Z,20.82
2023-05-14T07:38:29.210Z,20.82
2023-05-14T07:39:29.198Z,20.96
2023-05-14T07:40:29.250Z,21.15
2023-05-14T07:41:29.224Z,21.09
2023-05-14T07:42:36.386Z,21.40
2023-05-14T07:43:30.155Z,21.51
2023-05-14T07:44:29.188Z,22.60
2023-05-14T07:45:29.188Z,22.80
2023-05-14T07:46:29.153Z,23.09
2023-05-14T07:47:29.224Z,23.84
2023-05-14T07:48:29.216Z,22.07
2023-05-14T07:49:29.112Z,21.50
2023-05-14T07:50:29.153Z,21.61
2023-05-14T07:51:29.067Z,22.62
2023-05-14T07:52:29.060Z,22.73
2023-05-14T07:53:29.051Z,23.27
2023-05-14T07:54:29.092Z,22.93
2023-05-14T07:55:29.060Z,22.41
2023-05-14T07:56:29.040Z,22.84
2023-05-14T07:57:29.020Z,23.40
2023-05-14T07:58:29.045Z,23.02
2023-05-14T07:59:29.025Z,22.76
2023-05-14T08:00:28.980Z,22.68
2023-05-14T08:01:28.966Z,23.25
2023-05-14T08:02:29.023Z,22.70
2023-05-14T08:03:29.118Z,22.84
2023-05-14T08:04:29.116Z,22.85
2023-05-14T08:05:28.936Z,22.54
2023-05-14T08:06:28.913Z,22.06
2023-05-14T08:07:28.899Z,22.23
2023-05-14T08:08:28.887Z,22.18
2023-05-14T08:09:28.896Z,22.32
2023-05-14T08:10:29.269Z,22.65
2023-05-14T08:11:28.833Z,22.60
2023-05-14T08:12:28.848Z,22.72
2023-05-14T08:13:28.874Z,22.68
2023-05-14T08:14:28.905Z,23.02
2023-05-14T08:15:28.837Z,22.60
2023-05-14T08:16:28.855Z,22.11
2023-05-14T08:17:28.800Z,22.45
2023-05-14T08:18:28.836Z,22.45
2023-05-14T08:19:28.802Z,22.63
2023-05-14T08:20:28.867Z,22.54
2023-05-14T08:21:28.795Z,22.44
2023-05-14T08:22:28.757Z,22.26
2023-05-14T08:23:28.752Z,21.69
2023-05-14T08:24:28.760Z,21.70
2023-05-14T08:25:28.758Z,22.25
2023-05-14T08:26:28.794Z,22.39
2023-05-14T08:27:28.749Z,22.28
2023-05-14T08:28:28.770Z,22.33
2023-05-14T08:29:28.692Z,22.13
2023-05-14T08:30:28.758Z,22.63
2023-05-14T08:31:28.672Z,22.68
2023-05-14T08:32:28.775Z,22.66
2023-05-14T08:33:28.624Z,22.93
2023-05-14T08:34:28.671Z,23.08
2023-05-14T08:35:28.634Z,22.02
2023-05-14T08:36:28.661Z,21.75
2023-05-14T08:37:28.656Z,21.48
2023-05-14T08:38:28.684Z,21.66
2023-05-14T08:39:28.574Z,22.32
2023-05-14T08:40:28.736Z,22.68
2023-05-14T08:41:28.593Z,22.69
2023-05-14T08:42:28.761Z,23.23
2023-05-14T08:43:28.748Z,23.48
2023-05-14T08:44:28.636Z,23.32
2023-05-14T08:45:28.532Z,23.13
2023-05-14T08:46:28.633Z,23.09
2023-05-14T08:47:28.540Z,23.54
2023-05-14T08:48:28.594Z,22.90
2023-05-14T08:49:28.455Z,22.93
2023-05-14T08:50:28.830Z,23.55
2023-05-14T08:51:28.549Z,23.66
2023-05-14T08:52:28.421Z,23.43
2023-05-14T08:53:28.491Z,23.21
2023-05-14T08:54:28.464Z,22.81
2023-05-14T08:55:28.507Z,22.54
2023-05-14T08:56:28.448Z,22.59
2023-05-14T08:57:28.436Z,22.36
2023-05-14T08:58:28.408Z,22.06
2023-05-14T08:59:28.359Z,22.36
2023-05-14T09:00:28.478Z,22.25
2023-05-14T09:01:28.396Z,22.22
2023-05-14T09:02:28.419Z,22.59
2023-05-14T09:03:28.344Z,22.35
2023-05-14T09:04:28.361Z,22.33
2023-05-14T09:05:28.365Z,22.44
2023-05-14T09:06:28.295Z,23.08
2023-05-14T09:07:28.270Z,22.98
2023-05-14T09:08:28.252Z,23.24
2023-05-14T09:09:28.232Z,22.98
2023-05-14T09:10:28.303Z,23.17
2023-05-14T09:11:28.455Z,22.76
2023-05-14T09:12:28.230Z,23.03
2023-05-14T09:13:28.469Z,23.06
2023-05-14T09:14:28.353Z,22.69
2023-05-14T09:15:28.248Z,22.84
2023-05-14T09:16:28.273Z,22.80
2023-05-14T09:17:28.223Z,23.05
2023-05-14T09:18:28.327Z,23.18
2023-05-14T09:19:28.202Z,23.51
2023-05-14T09:20:28.687Z,24.21
2023-05-14T09:21:28.123Z,24.16
2023-05-14T09:22:28.139Z,24.73
2023-05-14T09:23:28.152Z,24.96
2023-05-14T09:24:28.142Z,24.86
2023-05-14T09:25:28.071Z,24.73
2023-05-14T09:26:28.111Z,24.26
2023-05-14T09:27:28.063Z,24.06
2023-05-14T09:28:28.128Z,23.25
2023-05-14T09:29:28.120Z,23.44
2023-05-14T09:30:28.052Z,24.05
2023-05-14T09:31:28.049Z,23.59
2023-05-14T09:32:28.033Z,23.47
2023-05-14T09:33:28.067Z,23.48
2023-05-14T09:34:28.032Z,24.16
2023-05-14T09:35:27.991Z,24.54
2023-05-14T09:36:27.968Z,25.07
2023-05-14T09:37:27.987Z,24.81
2023-05-14T09:38:27.973Z,24.28
2023-05-14T09:39:27.962Z,22.38
2023-05-14T09:40:28.241Z,21.99
2023-05-14T09:41:27.907Z,21.88
2023-05-14T09:42:28.019Z,22.48
2023-05-14T09:43:28.052Z,23.32
2023-05-14T09:44:27.947Z,23.39
2023-05-14T09:45:27.906Z,23.78
2023-05-14T09:46:27.850Z,24.10
2023-05-14T09:47:27.976Z,23.95
2023-05-14T09:48:27.913Z,23.78
2023-05-14T09:49:27.826Z,24.21
2023-05-14T09:50:27.816Z,24.43
2023-05-14T09:51:27.865Z,24.45
2023-05-14T09:52:27.850Z,24.10
2023-05-14T09:53:27.795Z,24.03
2023-05-14T09:54:27.818Z,24.35
2023-05-14T09:55:27.816Z,24.89
2023-05-14T09:56:27.739Z,25.11
2023-05-14T09:57:27.783Z,25.18
2023-05-14T09:58:27.764Z,25.26
2023-05-14T09:59:27.739Z,25.32
2023-05-14T10:00:27.707Z,24.66
2023-05-14T10:01:27.755Z,24.32
2023-05-14T10:02:27.770Z,24.36
2023-05-14T10:03:27.753Z,24.60
2023-05-14T10:04:27.739Z,24.89
2023-05-14T10:05:27.693Z,24.16
2023-05-14T10:06:27.707Z,23.83
2023-05-14T10:07:27.632Z,23.34
2023-05-14T10:08:27.647Z,23.68
2023-05-14T10:09:27.620Z,23.43
2023-05-14T10:10:27.996Z,23.86
2023-05-14T10:11:27.616Z,23.34
2023-05-14T10:12:27.612Z,23.98
2023-05-14T10:13:27.596Z,24.81
2023-05-14T10:14:27.555Z,24.85
2023-05-14T10:15:27.607Z,24.85
2023-05-14T10:16:27.624Z,24.91
2023-05-14T10:17:27.594Z,25.33
2023-05-14T10:18:27.709Z,25.77
2023-05-14T10:19:27.569Z,25.88
2023-05-14T10:20:27.534Z,25.80
2023-05-14T10:21:27.494Z,25.28
2023-05-14T10:22:27.541Z,24.81
2023-05-14T10:23:27.492Z,25.29
2023-05-14T10:24:27.437Z,25.47
2023-05-14T10:25:27.469Z,25.43
2023-05-14T10:26:27.424Z,25.13
2023-05-14T10:27:27.415Z,24.47
2023-05-14T10:28:27.387Z,23.76
2023-05-14T10:29:27.430Z,23.96
2023-05-14T10:30:27.600Z,24.73
2023-05-14T10:31:27.438Z,24.92
2023-05-14T10:32:27.359Z,24.42
2023-05-14T10:33:27.366Z,23.74
2023-05-14T10:34:27.401Z,23.31
2023-05-14T10:35:27.304Z,23.06
2023-05-14T10:36:27.316Z,23.46
2023-05-14T10:37:27.314Z,23.10
2023-05-14T10:38:27.324Z,22.98
2023-05-14T10:39:27.327Z,23.18
2023-05-14T10:40:27.399Z,22.84
2023-05-14T10:41:27.261Z,22.51
2023-05-14T10:42:27.251Z,22.18
2023-05-14T10:43:27.248Z,21.72
2023-05-14T10:44:27.260Z,21.61
2023-05-14T10:45:27.225Z,22.07
2023-05-14T10:46:27.249Z,22.80
2023-05-14T10:47:27.186Z,23.28
2023-05-14T10:48:27.197Z,23.37
2023-05-14T10:49:42.317Z,23.08
2023-05-14T10:50:28.175Z,22.96
2023-05-14T10:51:27.181Z,23.44
2023-05-14T10:52:27.157Z,23.99
2023-05-14T10:53:27.176Z,23.93
2023-05-14T10:54:27.159Z,24.02
2023-05-14T10:55:27.095Z,24.20
2023-05-14T10:56:27.121Z,24.70
2023-05-14T10:57:27.099Z,24.98
2023-05-14T10:58:27.105Z,24.66
2023-05-14T10:59:27.070Z,25.40
2023-05-14T11:00:27.059Z,25.54
2023-05-14T11:01:27.086Z,25.23
2023-05-14T11:02:27.109Z,25.16
2023-05-14T11:03:27.093Z,25.96
2023-05-14T11:04:27.036Z,25.96
2023-05-14T11:05:27.022Z,26.25
2023-05-14T11:06:26.993Z,25.54
2023-05-14T11:07:27.034Z,25.25
2023-05-14T11:08:28.087Z,25.23
2023-05-14T11:09:26.992Z,24.61
2023-05-14T11:10:27.066Z,24.36
2023-05-14T11:11:26.949Z,24.24
2023-05-14T11:12:27.003Z,24.05
2023-05-14T11:13:26.966Z,24.03
2023-05-14T11:14:26.886Z,24.02
2023-05-14T11:15:26.915Z,23.37
2023-05-14T11:16:26.917Z,23.13
2023-05-14T11:17:26.941Z,23.05
2023-05-14T11:18:26.910Z,22.59
2023-05-14T11:19:26.867Z,22.91
2023-05-14T11:20:27.059Z,22.73
2023-05-14T11:21:26.948Z,22.90
2023-05-14T11:22:26.867Z,23.27
2023-05-14T11:23:26.862Z,23.28
2023-05-14T11:24:26.843Z,22.57
2023-05-14T11:25:26.803Z,22.41
2023-05-14T11:26:26.853Z,22.28
2023-05-14T11:27:26.776Z,-39.96
2023-05-14T11:28:26.786Z,22.35
2023-05-14T11:29:26.758Z,22.59
2023-05-14T11:30:26.742Z,22.47
2023-05-14T11:31:26.822Z,22.45
2023-05-14T11:32:26.739Z,22.47
2023-05-14T11:33:26.726Z,22.18
2023-05-14T11:34:26.712Z,22.14
2023-05-14T11:35:26.745Z,22.00
2023-05-14T11:36:26.691Z,21.79
2023-05-14T11:37:26.653Z,-40.00
2023-05-14T11:38:26.675Z,22.06
2023-05-14T11:39:26.666Z,21.96
2023-05-14T11:40:26.772Z,22.29
2023-05-14T11:41:26.636Z,22.36
2023-05-14T11:42:26.614Z,22.26
2023-05-14T11:43:26.622Z,22.41
2023-05-14T11:44:26.597Z,22.02
2023-05-14T11:45:26.630Z,21.89
2023-05-14T11:46:26.615Z,22.13
2023-05-14T11:47:26.630Z,22.33
2023-05-14T11:48:26.564Z,22.41
2023-05-14T11:49:26.614Z,22.39
2023-05-14T11:50:26.826Z,22.28
2023-05-14T11:51:26.552Z,22.14
2023-05-14T11:52:26.527Z,22.25
2023-05-14T11:53:26.508Z,22.50
2023-05-14T11:54:26.546Z,22.59
2023-05-14T11:55:26.483Z,22.30
2023-05-14T11:56:26.480Z,22.15
2023-05-14T11:57:26.446Z,21.96
2023-05-14T11:58:26.459Z,22.02
2023-05-14T11:59:26.439Z,21.79
2023-05-14T12:00:26.503Z,21.62
2023-05-14T12:01:26.453Z,21.88
2023-05-14T12:02:26.496Z,21.82
2023-05-14T12:03:26.806Z,21.76
2023-05-14T12:04:26.406Z,21.75
2023-05-14T12:05:26.356Z,21.35
2023-05-14T12:06:26.338Z,21.54
2023-05-14T12:07:26.344Z,21.72
2023-05-14T12:08:26.391Z,21.89
2023-05-14T12:09:26.401Z,22.00
2023-05-14T12:10:26.612Z,22.32
2023-05-14T12:11:26.305Z,22.63
2023-05-14T12:12:26.341Z,22.50
2023-05-14T12:13:26.353Z,22.36
2023-05-14T12:14:26.279Z,22.10
2023-05-14T12:15:26.282Z,22.13
2023-05-14T12:16:26.281Z,22.00
2023-05-14T12:17:26.343Z,22.02
2023-05-14T12:18:26.347Z,21.92
2023-05-14T12:19:26.360Z,21.88
2023-05-14T12:20:26.324Z,21.70
2023-05-14T12:21:26.187Z,21.75
2023-05-14T12:22:26.229Z,21.76
2023-05-14T12:23:26.216Z,21.89
2023-05-14T12:24:26.167Z,21.70
2023-05-14T12:25:26.155Z,21.72
2023-05-14T12:26:26.142Z,21.51
2023-05-14T12:27:26.221Z,21.21
2023-05-14T12:28:26.129Z,-39.96
2023-05-14T12:29:26.111Z,-40.00
2023-05-14T12:30:26.098Z,-39.96
2023-05-14T12:31:26.116Z,-40.00
2023-05-14T12:32:26.101Z,-39.96
2023-05-14T12:33:26.072Z,-39.36
2023-05-14T12:34:26.033Z,-39.96
2023-05-14T12:35:26.182Z,-39.96
2023-05-14T12:36:26.059Z,-40.00
2023-05-14T12:37:26.059Z,-39.96
2023-05-14T12:38:26.010Z,-40.00
2023-05-14T12:39:25.988Z,-40.00
2023-05-14T12:40:26.232Z,-40.00
2023-05-14T12:41:26.053Z,-40.00
2023-05-14T12:42:25.970Z,-40.00
2023-05-14T12:43:25.940Z,-40.00
2023-05-14T12:44:25.920Z,-39.96
2023-05-14T12:45:26.111Z,-39.96
2023-05-14T12:46:25.993Z,-40.00
2023-05-14T12:47:25.990Z,-40.00
2023-05-14T12:48:25.903Z,-40.00
2023-05-14T12:49:25.866Z,-39.99
2023-05-14T12:50:26.208Z,-40.00
2023-05-14T12:51:25.883Z,-40.00
2023-05-14T12:52:37.731Z,-40.00
2023-05-14T12:53:26.821Z,-40.00
2023-05-14T12:54:25.836Z,-40.00
2023-05-14T12:55:25.860Z,20.58
2023-05-14T12:56:25.820Z,-40.00
2023-05-14T12:57:25.796Z,-40.00
2023-05-14T12:58:25.783Z,-40.00
2023-05-14T12:59:25.789Z,-39.96
2023-05-14T13:00:26.025Z,-40.00
2023-05-14T13:01:25.786Z,-39.96